Time;durP1;ratioP1;P1;durP2;ratioP2;P2;SDS_P1;SDS_P2;PMS_P1;PMS_P2;Temp;Humidity;BMP_temperature;BMP_pressure;BME280_temperature;BME280_humidity;BME280_pressure;Samples;Min_cycle;Max_cycle;Signal;HPM_P1;HPM_P2
2021/07/27 00:00:29;;;;;;;;;;;26.30;99.90;;;;;;1907678;74;20260;-92
2021/07/27 00:03:00;;;;;;;;;;;26.30;99.90;;;;;;1907547;74;20126;-91
2021/07/27 00:05:32;;;;;;;;;;;26.30;99.90;;;;;;1905910;74;20553;-90
2021/07/27 00:08:03;;;;;;;;;;;26.30;99.90;;;;;;1915052;74;20627;-87
2021/07/27 00:10:35;;;;;;;;;;;26.30;99.90;;;;;;1860254;76;20152;-88
2021/07/27 00:13:06;;;;;;;;;;;26.40;99.90;;;;;;1854559;77;20432;-87
2021/07/27 00:15:36;;;;;;;;;;;26.40;99.90;;;;;;1856946;77;20447;-88
2021/07/27 00:18:07;;;;;;;;;;;26.50;99.90;;;;;;1852919;76;20261;-88
2021/07/27 00:20:36;;;;;;;;;;;26.50;99.90;;;;;;1847532;76;20229;-89
2021/07/27 00:23:06;;;;;;;;;;;26.50;99.90;;;;;;1861144;77;20228;-88
2021/07/27 00:25:39;;;;;;;;;;;26.50;99.90;;;;;;1859053;77;20203;-88
2021/07/27 00:28:10;;;;;;;;;;;26.60;99.90;;;;;;1855691;77;20120;-89
2021/07/27 00:30:40;;;;;;;;;;;26.60;99.90;;;;;;1860042;76;20251;-89
2021/07/27 00:33:10;;;;;;;;;;;26.60;99.90;;;;;;1911427;74;20503;-88
2021/07/27 00:35:39;;;;;;;;;;;26.60;99.90;;;;;;1914280;74;20134;-88
2021/07/27 00:38:10;;;;;;;;;;;26.60;99.90;;;;;;1902974;74;20217;-89
2021/07/27 00:40:41;;;;;;;;;;;26.70;99.90;;;;;;1916058;73;20177;-88
2021/07/27 00:43:11;;;;;;;;;;;26.70;99.90;;;;;;1904482;74;20210;-89
2021/07/27 00:45:41;;;;;;;;;;;26.70;99.90;;;;;;1901916;74;20288;-89
2021/07/27 00:48:11;;;;;;;;;;;26.80;99.90;;;;;;1900475;74;20178;-88
2021/07/27 00:50:41;;;;;;;;;;;26.80;99.90;;;;;;1907469;74;20524;-90
2021/07/27 00:53:11;;;;;;;;;;;26.80;99.90;;;;;;1911510;74;20220;-91
2021/07/27 00:55:41;;;;;;;;;;;26.90;99.90;;;;;;1905040;74;20269;-90
2021/07/27 00:58:11;;;;;;;;;;;26.90;99.90;;;;;;1894957;74;20193;-89
2021/07/27 01:00:42;;;;;;;;;;;26.90;99.90;;;;;;1911803;74;20200;-87
2021/07/27 01:03:12;;;;;;;;;;;26.90;99.90;;;;;;1917929;73;20265;-87
2021/07/27 01:05:41;;;;;;;;;;;27.00;99.90;;;;;;1911728;73;20208;-88
2021/07/27 01:08:11;;;;;;;;;;;27.00;99.90;;;;;;1915538;74;20276;-88
2021/07/27 01:10:41;;;;;;;;;;;27.10;99.90;;;;;;1904697;74;20166;-89
2021/07/27 01:13:11;;;;;;;;;;;27.10;99.90;;;;;;1906983;73;20300;-89
2021/07/27 01:15:52;;;;;;;;;;;;;;;;;;;;;
2021/07/27 01:18:39;;;;;;;;;;;27.30;99.90;;;;;;1891783;75;20448;-89
2021/07/27 01:43:51;;;;;;;;;;;27.80;99.90;;;;;;1907591;74;20274;-88
2021/07/27 01:46:25;;;;;;;;;;;27.90;99.90;;;;;;1907955;74;20120;-89
2021/07/27 01:48:53;;;;;;;;;;;28.00;99.30;;;;;;1911432;74;20209;-89
2021/07/27 01:51:25;;;;;;;;;;;28.00;99.00;;;;;;1876033;75;20246;-92
2021/07/27 01:53:55;;;;;;;;;;;28.00;98.70;;;;;;1901276;75;20178;-89
2021/07/27 01:56:25;;;;;;;;;;;28.10;98.40;;;;;;1900969;75;20126;-89
2021/07/27 01:58:57;;;;;;;;;;;28.20;98.40;;;;;;1902662;75;20225;-88
2021/07/27 02:01:27;;;;;;;;;;;28.20;98.40;;;;;;1905220;75;20219;-89
2021/07/27 02:03:56;;;;;;;;;;;28.30;98.10;;;;;;1902797;75;20193;-91
2021/07/27 02:06:27;;;;;;;;;;;28.50;98.10;;;;;;1899208;75;20392;-88
2021/07/27 02:09:16;;;;;;;;;;;28.60;98.10;;;;;;1871625;74;20211;-87
2021/07/27 02:12:16;;;;;;;;;;;28.90;97.70;;;;;;1900928;74;20137;-87
2021/07/27 02:26:39;;;;;;;;;;;29.30;95.90;;;;;;1639827;86;20252;-88
2021/07/27 02:29:08;;;;;;;;;;;29.30;96.00;;;;;;1662525;85;20264;-86
2021/07/27 02:32:06;;;;;;;;;;;29.30;95.80;;;;;;1940572;73;20496;-87
2021/07/27 02:34:36;;;;;;;;;;;29.30;95.70;;;;;;1915354;74;20126;-87
2021/07/27 02:37:14;;;;;;;;;;;29.30;95.50;;;;;;1905401;75;20132;-87
2021/07/27 02:39:42;;;;;;;;;;;29.40;95.50;;;;;;1903176;75;20229;-87
2021/07/27 02:42:14;;;;;;;;;;;29.60;95.60;;;;;;1914681;74;20156;-87
2021/07/27 02:44:52;;;;;;;;;;;29.70;95.00;;;;;;1911713;74;20116;-88
2021/07/27 02:47:25;;;;;;;;;;;29.70;94.70;;;;;;1905950;74;20225;-86
2021/07/27 02:49:53;;;;;;;;;;;29.80;95.10;;;;;;1908381;74;20543;-87
2021/07/27 02:52:23;;;;;;;;;;;29.90;94.20;;;;;;1897095;75;20160;-88
2021/07/27 02:54:54;;;;;;;;;;;30.00;94.50;;;;;;1904392;74;20222;-88
2021/07/27 02:57:24;;;;;;;;;;;30.00;94.70;;;;;;1911480;74;20162;-87
2021/07/27 02:59:55;;;;;;;;;;;30.10;94.90;;;;;;1910125;74;20738;-85
2021/07/27 03:02:26;;;;;;;;;;;30.00;94.60;;;;;;1914383;73;20290;-86
2021/07/27 03:04:55;;;;;;;;;;;29.90;94.50;;;;;;1917223;74;20175;-87
2021/07/27 03:07:34;;;;;;;;;;;29.90;94.50;;;;;;1909826;74;20130;-87
2021/07/27 03:12:32;;;;;;;;;;;30.10;94.40;;;;;;1885289;75;20158;-87
2021/07/27 03:15:02;;;;;;;;;;;30.10;94.20;;;;;;1905195;74;20358;-87
2021/07/27 03:17:32;;;;;;;;;;;30.30;94.40;;;;;;1903826;75;20173;-87
2021/07/27 03:20:03;;;;;;;;;;;30.30;93.80;;;;;;1897047;75;20166;-87
2021/07/27 03:22:35;;;;;;;;;;;30.40;94.20;;;;;;1875039;75;20209;-86
2021/07/27 03:25:06;;;;;;;;;;;30.40;93.80;;;;;;1915826;74;20177;-86
2021/07/27 03:27:40;;;;;;;;;;;30.50;93.30;;;;;;1897999;75;20189;-89
2021/07/27 03:30:20;;;;;;;;;;;30.40;93.70;;;;;;1911751;74;20228;-86
2021/07/27 03:32:50;;;;;;;;;;;30.40;93.60;;;;;;1906161;74;20505;-87
2021/07/27 03:35:21;;;;;;;;;;;30.30;93.80;;;;;;1903296;74;20432;-87
2021/07/27 03:37:50;;;;;;;;;;;30.40;93.60;;;;;;1889463;75;20159;-86
2021/07/27 03:40:23;;;;;;;;;;;30.40;93.70;;;;;;1898396;74;20441;-87
2021/07/27 03:42:54;;;;;;;;;;;30.40;93.90;;;;;;1903837;74;20134;-86
2021/07/27 03:45:23;;;;;;;;;;;30.50;93.30;;;;;;1886320;74;20176;-88
2021/07/27 03:47:53;;;;;;;;;;;30.60;92.50;;;;;;1908387;74;20304;-87
2021/07/27 03:50:24;;;;;;;;;;;30.70;92.70;;;;;;1896091;74;20131;-88
2021/07/27 03:52:53;;;;;;;;;;;30.80;92.60;;;;;;1899181;75;20241;-87
2021/07/27 03:55:23;;;;;;;;;;;30.90;92.00;;;;;;1908546;75;20185;-87
2021/07/27 03:57:53;;;;;;;;;;;31.00;91.50;;;;;;1909299;75;20199;-86
2021/07/27 04:00:24;;;;;;;;;;;31.10;90.20;;;;;;1896279;75;20178;-88
2021/07/27 04:02:56;;;;;;;;;;;31.10;90.30;;;;;;1903803;75;20246;-88
2021/07/27 04:05:26;;;;;;;;;;;31.00;90.90;;;;;;1904875;75;20185;-87
2021/07/27 04:07:55;;;;;;;;;;;31.00;91.00;;;;;;1903897;75;20172;-86
2021/07/27 04:10:25;;;;;;;;;;;31.10;91.10;;;;;;1900473;75;20205;-87
2021/07/27 04:12:55;;;;;;;;;;;31.10;91.10;;;;;;1895131;75;20241;-88
2021/07/27 04:15:28;;;;;;;;;;;31.10;90.90;;;;;;1908406;75;20249;-88
2021/07/27 04:17:58;;;;;;;;;;;31.10;91.30;;;;;;1900109;75;20194;-87
2021/07/27 04:20:28;;;;;;;;;;;31.20;91.50;;;;;;1903474;74;20170;-88
2021/07/27 04:22:57;;;;;;;;;;;31.20;91.00;;;;;;1898553;75;20237;-86
2021/07/27 04:25:28;;;;;;;;;;;31.10;91.20;;;;;;1900794;75;20245;-88
2021/07/27 04:28:00;;;;;;;;;;;31.20;90.70;;;;;;1903720;75;20205;-89
2021/07/27 04:30:31;;;;;;;;;;;31.20;91.90;;;;;;1913413;75;20517;-86
2021/07/27 04:33:01;;;;;;;;;;;31.30;91.70;;;;;;1884309;75;20195;-89
2021/07/27 04:35:31;;;;;;;;;;;31.20;91.70;;;;;;1870125;75;20412;-89
2021/07/27 04:38:01;;;;;;;;;;;31.20;91.70;;;;;;1869044;76;20219;-88
2021/07/27 04:40:31;;;;;;;;;;;31.20;91.60;;;;;;1876424;76;20231;-86
2021/07/27 04:43:06;;;;;;;;;;;31.10;91.00;;;;;;1809102;79;20256;-88
2021/07/27 04:45:45;;;;;;;;;;;31.00;91.10;;;;;;1769130;79;20219;-87
2021/07/27 04:48:18;;;;;;;;;;;31.00;91.70;;;;;;1808769;79;20207;-88
2021/07/27 04:50:49;;;;;;;;;;;30.90;91.40;;;;;;1834052;77;20674;-89
2021/07/27 04:53:29;;;;;;;;;;;30.70;91.90;;;;;;1829640;78;20201;-90
2021/07/27 04:55:52;;;;;;;;;;;30.70;91.70;;;;;;1879965;76;20474;-88
2021/07/27 04:58:26;;;;;;;;;;;30.60;92.10;;;;;;1877602;76;20237;-79
2021/07/27 05:00:57;;;;;;;;;;;30.60;91.90;;;;;;1876241;76;20172;-83
2021/07/27 05:03:26;;;;;;;;;;;30.60;92.20;;;;;;1878626;76;20243;-81
2021/07/27 05:05:57;;;;;;;;;;;30.60;92.20;;;;;;1880481;76;20207;-81
2021/07/27 05:08:28;;;;;;;;;;;30.60;92.60;;;;;;1879132;76;20231;-80
2021/07/27 05:10:59;;;;;;;;;;;30.70;92.60;;;;;;1873601;76;20133;-79
2021/07/27 05:13:29;;;;;;;;;;;30.90;92.60;;;;;;1877813;76;20321;-79
2021/07/27 05:16:00;;;;;;;;;;;31.00;91.60;;;;;;1877923;76;20192;-78
2021/07/27 05:18:30;;;;;;;;;;;31.00;91.80;;;;;;1878929;76;20273;-80
2021/07/27 05:21:00;;;;;;;;;;;31.10;91.50;;;;;;1878874;76;20351;-79
2021/07/27 05:23:29;;;;;;;;;;;31.20;91.60;;;;;;1880658;76;20627;-78
2021/07/27 05:25:59;;;;;;;;;;;31.30;91.60;;;;;;1880279;76;20242;-80
2021/07/27 05:28:28;;;;;;;;;;;31.30;91.30;;;;;;1877284;76;20116;-79
2021/07/27 05:31:16;;;;;;;;;;;31.40;91.10;;;;;;1796199;79;20170;-80
2021/07/27 05:33:42;;;;;;;;;;;31.50;90.30;;;;;;1832418;77;20525;-80
2021/07/27 05:36:15;;;;;;;;;;;31.60;89.10;;;;;;1833545;77;20172;-79
2021/07/27 05:38:46;;;;;;;;;;;31.70;89.40;;;;;;1881732;75;20454;-79
2021/07/27 05:41:16;;;;;;;;;;;31.80;90.10;;;;;;1878791;75;20493;-80
2021/07/27 05:43:45;;;;;;;;;;;31.90;88.20;;;;;;1857909;76;20298;-80
2021/07/27 05:46:15;;;;;;;;;;;32.00;87.80;;;;;;1855182;77;20385;-80
2021/07/27 05:48:46;;;;;;;;;;;32.00;88.40;;;;;;1837465;78;20189;-80
2021/07/27 05:51:16;;;;;;;;;;;32.10;88.60;;;;;;1845933;74;20103;-81
2021/07/27 05:53:46;;;;;;;;;;;32.10;88.10;;;;;;1842208;74;20226;-81
2021/07/27 05:56:15;;;;;;;;;;;32.10;85.90;;;;;;1843690;76;20205;-79
2021/07/27 05:58:45;;;;;;;;;;;32.10;85.70;;;;;;1918537;74;20356;-79
2021/07/27 06:01:15;;;;;;;;;;;32.10;85.30;;;;;;1910089;73;20185;-79
2021/07/27 06:03:44;;;;;;;;;;;32.10;87.20;;;;;;1903630;74;20484;-80
2021/07/27 06:06:14;;;;;;;;;;;32.20;85.70;;;;;;1904765;75;20222;-80
2021/07/27 06:08:43;;;;;;;;;;;32.20;84.90;;;;;;1915117;75;20445;-79
2021/07/27 06:11:13;;;;;;;;;;;32.30;85.30;;;;;;1910743;75;20253;-79
2021/07/27 06:13:43;;;;;;;;;;;32.30;85.30;;;;;;1908317;75;20608;-79
2021/07/27 06:16:13;;;;;;;;;;;32.30;84.40;;;;;;1908645;74;20165;-78
2021/07/27 06:18:42;;;;;;;;;;;32.20;82.30;;;;;;1912910;75;20197;-78
2021/07/27 06:21:14;;;;;;;;;;;32.10;84.10;;;;;;1903162;75;20157;-80
2021/07/27 06:23:43;;;;;;;;;;;32.00;84.00;;;;;;1907001;75;20228;-78
2021/07/27 06:26:13;;;;;;;;;;;32.00;84.60;;;;;;1909234;75;20213;-78
2021/07/27 06:28:44;;;;;;;;;;;31.90;84.30;;;;;;1906990;75;20177;-79
2021/07/27 06:31:14;;;;;;;;;;;32.00;84.20;;;;;;1907494;75;20169;-80
2021/07/27 06:33:44;;;;;;;;;;;32.10;85.40;;;;;;1899392;74;20203;-79
2021/07/27 06:36:17;;;;;;;;;;;32.10;84.90;;;;;;1907126;75;20210;-79
2021/07/27 06:38:47;;;;;;;;;;;32.30;87.70;;;;;;1907939;75;20221;-78
2021/07/27 06:41:17;;;;;;;;;;;32.30;87.10;;;;;;1900924;74;20551;-79
2021/07/27 06:43:48;;;;;;;;;;;32.20;87.90;;;;;;1903415;74;20179;-79
2021/07/27 06:46:18;;;;;;;;;;;32.00;88.10;;;;;;1911555;74;20220;-79
2021/07/27 06:48:48;;;;;;;;;;;31.80;88.60;;;;;;1904677;74;20182;-79
2021/07/27 06:51:18;;;;;;;;;;;31.70;89.60;;;;;;1899978;74;20375;-78
2021/07/27 06:53:51;;;;;;;;;;;31.60;89.80;;;;;;1912506;74;20174;-78
2021/07/27 06:56:20;;;;;;;;;;;31.40;90.10;;;;;;1900583;74;20456;-79
2021/07/27 06:58:50;;;;;;;;;;;31.40;90.20;;;;;;1902172;74;20236;-79
2021/07/27 07:01:19;;;;;;;;;;;31.30;90.40;;;;;;1902950;74;20185;-80
2021/07/27 07:03:49;;;;;;;;;;;31.30;90.10;;;;;;1901345;74;20181;-78
2021/07/27 07:06:19;;;;;;;;;;;31.30;90.20;;;;;;1901055;74;20235;-78
2021/07/27 07:08:49;;;;;;;;;;;31.30;90.10;;;;;;1907851;74;20476;-78
2021/07/27 07:11:19;;;;;;;;;;;31.30;90.40;;;;;;1907080;74;20191;-78
2021/07/27 07:13:48;;;;;;;;;;;31.30;90.30;;;;;;1907446;75;20461;-79
2021/07/27 07:16:18;;;;;;;;;;;31.50;90.10;;;;;;1909471;74;20628;-80
2021/07/27 07:18:48;;;;;;;;;;;31.50;90.00;;;;;;1907289;74;20198;-79
2021/07/27 07:21:21;;;;;;;;;;;31.60;89.50;;;;;;1905380;74;20194;-79
2021/07/27 07:23:51;;;;;;;;;;;31.60;90.00;;;;;;1904474;74;20474;-78
2021/07/27 07:26:23;;;;;;;;;;;31.70;89.50;;;;;;1865809;76;20278;-78
2021/07/27 07:29:02;;;;;;;;;;;31.70;89.40;;;;;;1828469;77;20194;-79
2021/07/27 07:31:35;;;;;;;;;;;31.70;89.90;;;;;;1828822;78;20257;-79
2021/07/27 07:34:05;;;;;;;;;;;31.60;88.90;;;;;;1829906;77;20221;-79
2021/07/27 07:36:34;;;;;;;;;;;31.60;89.40;;;;;;1829956;77;20401;-79
2021/07/27 07:39:06;;;;;;;;;;;31.50;89.40;;;;;;1828976;78;20234;-79
2021/07/27 07:41:36;;;;;;;;;;;31.50;89.80;;;;;;1826624;77;20259;-79
2021/07/27 07:44:06;;;;;;;;;;;31.50;89.30;;;;;;1830399;77;20250;-79
2021/07/27 07:46:36;;;;;;;;;;;31.60;89.30;;;;;;1825970;78;20226;-80
2021/07/27 07:49:06;;;;;;;;;;;31.60;89.50;;;;;;1829062;78;20210;-78
2021/07/27 07:51:40;;;;;;;;;;;31.70;88.80;;;;;;1830139;76;20255;-80
2021/07/27 07:54:08;;;;;;;;;;;31.70;88.70;;;;;;1832739;76;20250;-79
2021/07/27 07:56:37;;;;;;;;;;;31.70;88.90;;;;;;1832390;78;20514;-79
2021/07/27 07:59:07;;;;;;;;;;;31.70;90.10;;;;;;1830717;76;20208;-80
2021/07/27 08:01:36;;;;;;;;;;;31.70;88.10;;;;;;1834549;78;20314;-81
2021/07/27 08:04:06;;;;;;;;;;;31.70;87.80;;;;;;1835355;77;20421;-79
2021/07/27 08:06:36;;;;;;;;;;;31.70;88.20;;;;;;1837853;78;20217;-80
2021/07/27 08:09:07;;;;;;;;;;;31.70;88.60;;;;;;1840059;77;20497;-80
2021/07/27 08:11:38;;;;;;;;;;;31.70;88.10;;;;;;1858607;75;20581;-79
2021/07/27 08:14:08;;;;;;;;;;;31.70;88.40;;;;;;1831920;78;20262;-80
2021/07/27 08:16:37;;;;;;;;;;;31.70;88.80;;;;;;1837446;76;20211;-78
2021/07/27 08:19:07;;;;;;;;;;;31.70;88.80;;;;;;1811018;78;20455;-80
2021/07/27 08:21:36;;;;;;;;;;;31.80;88.70;;;;;;1868537;76;20220;-80
2021/07/27 08:24:06;;;;;;;;;;;31.80;87.60;;;;;;1874209;76;20222;-80
2021/07/27 08:26:36;;;;;;;;;;;31.70;87.50;;;;;;1823443;77;20557;-80
2021/07/27 08:29:05;;;;;;;;;;;31.70;88.60;;;;;;1827978;77;20263;-80
2021/07/27 08:31:35;;;;;;;;;;;31.70;87.80;;;;;;1810918;79;20202;-79
2021/07/27 08:34:05;;;;;;;;;;;31.80;87.60;;;;;;1847349;77;20568;-80
2021/07/27 08:36:35;;;;;;;;;;;31.90;88.80;;;;;;1904034;74;20185;-80
2021/07/27 08:39:04;;;;;;;;;;;31.90;87.90;;;;;;1892880;74;20182;-80
2021/07/27 08:41:34;;;;;;;;;;;31.80;87.60;;;;;;1885611;74;20203;-80
2021/07/27 08:44:05;;;;;;;;;;;31.70;88.60;;;;;;1892905;74;20254;-80
2021/07/27 08:46:35;;;;;;;;;;;31.60;89.40;;;;;;1891211;76;20177;-79
2021/07/27 08:49:05;;;;;;;;;;;31.50;89.50;;;;;;1889645;76;20202;-80
2021/07/27 08:51:35;;;;;;;;;;;31.50;90.00;;;;;;1875802;76;20218;-81
2021/07/27 08:54:06;;;;;;;;;;;31.40;88.80;;;;;;1885580;76;20244;-80
2021/07/27 08:56:36;;;;;;;;;;;31.30;89.20;;;;;;1886751;76;20530;-80
2021/07/27 08:59:06;;;;;;;;;;;31.30;90.00;;;;;;1889730;74;20159;-80
2021/07/27 09:01:37;;;;;;;;;;;31.20;90.10;;;;;;1880710;74;20433;-79
2021/07/27 09:04:07;;;;;;;;;;;31.20;90.40;;;;;;1886292;76;20163;-79
2021/07/27 09:06:37;;;;;;;;;;;31.20;90.30;;;;;;1883556;76;20279;-79
2021/07/27 09:09:08;;;;;;;;;;;31.20;90.70;;;;;;1875437;76;20215;-80
2021/07/27 09:11:38;;;;;;;;;;;31.30;90.60;;;;;;1883409;75;20182;-79
2021/07/27 09:14:10;;;;;;;;;;;31.30;90.60;;;;;;1884074;76;20171;-80
2021/07/27 09:16:41;;;;;;;;;;;31.30;90.90;;;;;;1883766;76;20433;-80
2021/07/27 09:19:11;;;;;;;;;;;31.30;91.10;;;;;;1885323;75;20171;-80
2021/07/27 09:21:42;;;;;;;;;;;31.20;91.30;;;;;;1890311;76;20231;-80
2021/07/27 09:24:12;;;;;;;;;;;31.20;91.20;;;;;;1882198;76;20474;-79
2021/07/27 09:26:43;;;;;;;;;;;31.10;91.00;;;;;;1883966;75;20250;-80
2021/07/27 09:29:12;;;;;;;;;;;31.10;91.30;;;;;;1880102;75;20280;-79
2021/07/27 09:31:43;;;;;;;;;;;31.00;91.00;;;;;;1881778;76;20209;-79
2021/07/27 09:34:13;;;;;;;;;;;30.90;90.90;;;;;;1877213;75;20139;-80
2021/07/27 09:36:43;;;;;;;;;;;30.80;90.90;;;;;;1894643;75;20204;-80
2021/07/27 09:39:13;;;;;;;;;;;30.70;91.30;;;;;;1889425;75;20232;-80
2021/07/27 09:41:44;;;;;;;;;;;30.70;91.40;;;;;;1888872;74;20204;-79
2021/07/27 09:44:14;;;;;;;;;;;30.60;91.40;;;;;;1884165;74;20187;-80
2021/07/27 09:46:45;;;;;;;;;;;30.60;91.70;;;;;;1889948;75;20334;-80
2021/07/27 09:49:17;;;;;;;;;;;30.60;92.60;;;;;;1894371;75;20231;-79
2021/07/27 09:51:46;;;;;;;;;;;30.50;92.60;;;;;;1888888;75;20467;-78
2021/07/27 09:54:17;;;;;;;;;;;30.40;93.00;;;;;;1894427;75;20182;-80
2021/07/27 09:56:46;;;;;;;;;;;30.30;93.30;;;;;;1891811;74;20422;-80
2021/07/27 09:59:16;;;;;;;;;;;30.20;93.70;;;;;;1890209;75;20430;-79
2021/07/27 10:01:48;;;;;;;;;;;30.20;93.90;;;;;;1892092;74;20162;-79
2021/07/27 10:04:19;;;;;;;;;;;30.20;94.20;;;;;;1892392;74;20467;-80
2021/07/27 10:06:49;;;;;;;;;;;30.10;94.10;;;;;;1886774;75;20194;-80
2021/07/27 10:09:20;;;;;;;;;;;30.10;93.80;;;;;;1888045;74;20189;-81
2021/07/27 10:11:50;;;;;;;;;;;30.20;92.60;;;;;;1866949;75;20521;-81
2021/07/27 10:14:20;;;;;;;;;;;30.20;92.60;;;;;;1865437;75;20200;-80
2021/07/27 10:16:51;;;;;;;;;;;30.30;92.30;;;;;;1865096;75;20144;-79
2021/07/27 10:19:21;;;;;;;;;;;30.30;92.20;;;;;;1863267;75;20589;-80
2021/07/27 10:21:52;;;;;;;;;;;30.30;92.10;;;;;;1864623;75;20207;-80
2021/07/27 10:24:25;;;;;;;;;;;30.20;92.10;;;;;;1860253;75;20208;-80
2021/07/27 10:26:53;;;;;;;;;;;30.20;92.20;;;;;;1860615;75;20136;-80
2021/07/27 10:29:24;;;;;;;;;;;30.20;92.20;;;;;;1859133;75;20214;-80
2021/07/27 10:31:54;;;;;;;;;;;30.10;92.30;;;;;;1854887;76;20192;-81
2021/07/27 10:34:24;;;;;;;;;;;30.10;92.30;;;;;;1858910;75;20577;-80
2021/07/27 10:36:54;;;;;;;;;;;30.10;92.50;;;;;;1839137;76;20787;-79
2021/07/27 10:39:24;;;;;;;;;;;30.10;92.50;;;;;;1841882;77;20192;-79
2021/07/27 10:41:54;;;;;;;;;;;30.10;92.60;;;;;;1858509;76;20161;-78
2021/07/27 10:44:24;;;;;;;;;;;30.10;92.70;;;;;;1864418;76;20509;-78
2021/07/27 10:46:54;;;;;;;;;;;30.00;92.80;;;;;;1852130;77;20178;-81
2021/07/27 10:49:25;;;;;;;;;;;30.00;92.90;;;;;;1861379;77;20159;-78
2021/07/27 10:51:55;;;;;;;;;;;29.90;93.00;;;;;;1853837;76;20402;-81
2021/07/27 10:54:28;;;;;;;;;;;29.90;93.30;;;;;;1860837;76;20507;-80
2021/07/27 10:56:59;;;;;;;;;;;29.80;93.50;;;;;;1857522;76;20140;-79
2021/07/27 10:59:32;;;;;;;;;;;29.80;93.60;;;;;;1857368;76;20278;-80
2021/07/27 11:02:00;;;;;;;;;;;29.80;93.50;;;;;;1858721;76;20211;-80
2021/07/27 11:04:31;;;;;;;;;;;29.80;93.60;;;;;;1857487;77;20123;-80
2021/07/27 11:07:02;;;;;;;;;;;29.70;93.80;;;;;;1854333;76;20447;-79
2021/07/27 11:09:32;;;;;;;;;;;29.70;94.10;;;;;;1861912;76;20239;-80
2021/07/27 11:12:02;;;;;;;;;;;29.60;93.80;;;;;;1851084;76;20172;-77
2021/07/27 11:14:31;;;;;;;;;;;29.60;94.00;;;;;;1855308;76;20161;-79
2021/07/27 11:17:01;;;;;;;;;;;29.50;94.00;;;;;;1857056;76;20174;-79
2021/07/27 11:19:32;;;;;;;;;;;29.50;94.10;;;;;;1857109;76;20194;-79
2021/07/27 11:22:02;;;;;;;;;;;29.40;94.20;;;;;;1856289;76;20285;-90
2021/07/27 11:24:34;;;;;;;;;;;29.40;94.40;;;;;;1857425;76;20171;-91
2021/07/27 11:27:04;;;;;;;;;;;29.40;94.50;;;;;;1860521;76;20239;-92
2021/07/27 11:29:34;;;;;;;;;;;29.40;94.60;;;;;;1861020;76;20133;-91
2021/07/27 11:32:04;;;;;;;;;;;29.40;94.70;;;;;;1857267;76;20322;-92
2021/07/27 11:34:37;;;;;;;;;;;29.40;94.60;;;;;;1859705;76;20279;-92
2021/07/27 11:37:07;;;;;;;;;;;29.40;94.60;;;;;;1867203;76;20215;-88
2021/07/27 11:39:38;;;;;;;;;;;29.40;94.60;;;;;;1873435;76;20148;-92
2021/07/27 11:42:08;;;;;;;;;;;29.40;94.60;;;;;;1867187;76;20182;-90
2021/07/27 11:44:37;;;;;;;;;;;29.40;94.90;;;;;;1839293;76;20285;-92
2021/07/27 11:47:07;;;;;;;;;;;29.40;95.00;;;;;;1833739;76;20188;-90
2021/07/27 11:49:38;;;;;;;;;;;29.40;95.20;;;;;;1840662;76;20121;-90
2021/07/27 11:52:11;;;;;;;;;;;29.30;95.20;;;;;;1841274;76;20204;-90
2021/07/27 11:54:42;;;;;;;;;;;29.30;95.40;;;;;;1834410;76;20469;-91
2021/07/27 11:57:12;;;;;;;;;;;29.20;95.40;;;;;;1799864;78;20256;-91
2021/07/27 11:59:45;;;;;;;;;;;29.20;95.50;;;;;;1809163;78;20181;-90
2021/07/27 12:02:16;;;;;;;;;;;29.20;95.60;;;;;;1805075;78;20241;-92
2021/07/27 12:04:45;;;;;;;;;;;29.10;95.60;;;;;;1812740;77;20135;-91
2021/07/27 12:07:17;;;;;;;;;;;29.10;95.70;;;;;;1811285;78;20154;-91
2021/07/27 12:09:49;;;;;;;;;;;29.10;95.80;;;;;;1779345;79;20231;-90
2021/07/27 12:12:19;;;;;;;;;;;29.00;95.90;;;;;;1814073;79;20223;-91
2021/07/27 12:14:49;;;;;;;;;;;29.00;95.90;;;;;;1810471;79;20220;-91
2021/07/27 12:17:18;;;;;;;;;;;29.00;96.00;;;;;;1809437;78;20232;-90
2021/07/27 12:19:51;;;;;;;;;;;29.00;96.30;;;;;;1818281;78;20713;-90
2021/07/27 12:22:21;;;;;;;;;;;29.00;96.30;;;;;;1874944;75;20261;-91
2021/07/27 12:24:57;;;;;;;;;;;29.00;96.30;;;;;;1874141;75;20182;-92
2021/07/27 12:27:26;;;;;;;;;;;29.00;96.40;;;;;;1876406;75;20210;-90
2021/07/27 12:29:56;;;;;;;;;;;29.00;96.40;;;;;;1880387;75;20239;-91
2021/07/27 12:32:29;;;;;;;;;;;29.00;96.40;;;;;;1833078;75;20355;-90
2021/07/27 12:35:00;;;;;;;;;;;29.00;96.40;;;;;;1820610;74;20168;-89
2021/07/27 12:37:29;;;;;;;;;;;29.00;96.40;;;;;;1890967;73;20170;-90
2021/07/27 12:39:59;;;;;;;;;;;29.00;96.60;;;;;;1861856;73;20217;-89
2021/07/27 12:42:30;;;;;;;;;;;29.00;96.60;;;;;;1822897;74;20128;-89
2021/07/27 12:45:00;;;;;;;;;;;29.00;96.60;;;;;;1889125;73;20179;-92
2021/07/27 12:47:29;;;;;;;;;;;29.00;96.70;;;;;;1893893;72;20109;-89
2021/07/27 12:50:00;;;;;;;;;;;29.00;96.80;;;;;;1901198;71;20200;-92
2021/07/27 12:52:36;;;;;;;;;;;29.00;96.70;;;;;;1898306;75;20245;-90
2021/07/27 12:55:04;;;;;;;;;;;29.00;96.80;;;;;;1896818;75;20245;-92
2021/07/27 12:57:36;;;;;;;;;;;29.00;96.90;;;;;;1897858;75;20176;-92
2021/07/27 13:00:07;;;;;;;;;;;29.00;97.10;;;;;;1898412;75;20211;-92
2021/07/27 13:02:37;;;;;;;;;;;29.00;97.20;;;;;;1898344;75;20155;-93
2021/07/27 13:05:07;;;;;;;;;;;29.00;97.20;;;;;;1900461;75;20181;-92
2021/07/27 13:07:36;;;;;;;;;;;29.00;97.40;;;;;;1899427;75;20148;-92
2021/07/27 13:10:07;;;;;;;;;;;29.00;97.40;;;;;;1860444;75;20182;-90
2021/07/27 13:12:37;;;;;;;;;;;29.00;97.40;;;;;;1841765;77;20419;-92
2021/07/27 13:15:07;;;;;;;;;;;29.00;97.50;;;;;;1887510;75;20253;-91
2021/07/27 13:17:37;;;;;;;;;;;28.90;97.40;;;;;;1887271;75;20194;-91
2021/07/27 13:20:07;;;;;;;;;;;29.00;97.40;;;;;;1890729;76;20132;-92
2021/07/27 13:22:39;;;;;;;;;;;29.00;97.60;;;;;;1855741;76;20215;-91
2021/07/27 13:25:09;;;;;;;;;;;29.00;97.60;;;;;;1822974;78;20192;-88
2021/07/27 13:27:39;;;;;;;;;;;29.00;97.60;;;;;;1824566;77;20264;-90
2021/07/27 13:30:09;;;;;;;;;;;28.90;97.60;;;;;;1823594;77;20468;-89
2021/07/27 13:32:40;;;;;;;;;;;29.00;97.60;;;;;;1830495;77;20164;-88
2021/07/27 13:35:10;;;;;;;;;;;28.90;97.60;;;;;;1857337;76;20181;-88
2021/07/27 13:37:40;;;;;;;;;;;28.90;97.60;;;;;;1850481;76;20164;-89
2021/07/27 13:40:10;;;;;;;;;;;28.90;97.60;;;;;;1846075;76;20465;-90
2021/07/27 13:42:40;;;;;;;;;;;29.00;97.60;;;;;;1826426;77;20262;-92
2021/07/27 13:45:10;;;;;;;;;;;28.90;97.70;;;;;;1824786;77;20222;-89
2021/07/27 13:47:44;;;;;;;;;;;28.90;97.70;;;;;;1828512;77;20187;-89
2021/07/27 13:50:14;;;;;;;;;;;28.90;97.70;;;;;;1826649;77;20217;-89
2021/07/27 13:52:43;;;;;;;;;;;28.90;97.80;;;;;;1827400;77;20215;-93
2021/07/27 13:55:13;;;;;;;;;;;28.80;97.90;;;;;;1846575;76;20180;-92
2021/07/27 13:57:43;;;;;;;;;;;28.80;97.90;;;;;;1848265;76;20722;-91
2021/07/27 14:00:15;;;;;;;;;;;28.80;97.90;;;;;;1840547;77;20154;-91
2021/07/27 14:02:51;;;;;;;;;;;28.80;98.00;;;;;;1816964;78;20178;-91
2021/07/27 14:05:21;;;;;;;;;;;28.80;98.00;;;;;;1854394;76;20203;-91
2021/07/27 14:07:52;;;;;;;;;;;28.80;98.10;;;;;;1813258;77;20169;-91
2021/07/27 14:10:23;;;;;;;;;;;28.70;98.20;;;;;;1820610;77;20227;-90
2021/07/27 14:12:55;;;;;;;;;;;28.70;98.20;;;;;;1880736;75;20371;-93
2021/07/27 14:15:26;;;;;;;;;;;28.70;98.30;;;;;;1895445;74;20162;-91
2021/07/27 14:17:59;;;;;;;;;;;28.70;98.40;;;;;;1896613;74;20209;-91
2021/07/27 14:20:35;;;;;;;;;;;28.60;98.40;;;;;;1886216;75;20216;-94
2021/07/27 14:23:15;;;;;;;;;;;28.60;98.50;;;;;;1886635;75;20195;-91
2021/07/27 14:28:39;;;;;;;;;;;28.60;98.60;;;;;;1878010;76;20222;-92
2021/07/27 14:31:09;;;;;;;;;;;28.60;98.60;;;;;;1854142;76;20197;-91
2021/07/27 14:33:40;;;;;;;;;;;28.60;98.60;;;;;;1855676;77;20134;-94
2021/07/27 14:36:16;;;;;;;;;;;28.60;98.70;;;;;;1821620;79;20204;-90
2021/07/27 14:38:50;;;;;;;;;;;28.60;98.60;;;;;;1874613;76;20227;-91
2021/07/27 14:41:21;;;;;;;;;;;28.50;98.70;;;;;;1880074;75;20203;-92
2021/07/27 14:43:51;;;;;;;;;;;28.50;98.70;;;;;;1881713;76;20183;-92
2021/07/27 14:46:24;;;;;;;;;;;28.50;98.60;;;;;;1881251;76;20200;-91
2021/07/27 14:48:55;;;;;;;;;;;28.50;98.60;;;;;;1876219;76;20148;-92
2021/07/27 14:51:24;;;;;;;;;;;28.50;98.60;;;;;;1875204;77;20133;-91
2021/07/27 14:53:55;;;;;;;;;;;28.50;98.60;;;;;;1874419;77;20191;-92
2021/07/27 14:56:27;;;;;;;;;;;28.50;98.60;;;;;;1869594;76;20139;-91
2021/07/27 14:58:57;;;;;;;;;;;28.50;98.60;;;;;;1882801;75;20199;-91
2021/07/27 15:01:28;;;;;;;;;;;28.50;98.90;;;;;;1865970;76;20214;-92
2021/07/27 15:03:59;;;;;;;;;;;28.50;98.60;;;;;;1873362;76;20850;-92
2021/07/27 15:06:32;;;;;;;;;;;28.50;98.50;;;;;;1868039;76;20175;-91
2021/07/27 15:09:05;;;;;;;;;;;28.50;98.50;;;;;;1825256;77;20154;-92
2021/07/27 15:11:40;;;;;;;;;;;28.50;98.50;;;;;;1869440;76;20255;-91
2021/07/27 15:14:09;;;;;;;;;;;28.50;98.60;;;;;;1872310;75;20125;-92
2021/07/27 15:16:39;;;;;;;;;;;28.50;98.70;;;;;;1874983;76;20145;-92
2021/07/27 15:19:13;;;;;;;;;;;28.40;98.60;;;;;;1879499;75;20135;-92